Time;durP1;ratioP1;P1;durP2;ratioP2;P2;SDS_P1;SDS_P2;PMS_P1;PMS_P2;Temp;Humidity;BMP_temperature;BMP_pressure;BME280_temperature;BME280_humidity;BME280_pressure;Samples;Min_cycle;Max_cycle;Signal;HPM_P1;HPM_P2
2022/11/22 00:00:00;;;;;;;;;50.67;41.00;;;;;1.71;100.00;98777.75;6278197;20;2881590;-58
2022/11/22 00:02:29;;;;;;;;;58.50;44.00;;;;;1.64;100.00;98776.31;6313265;20;2860758;-57
2022/11/22 00:04:58;;;;;;;;;62.33;46.00;;;;;1.68;100.00;98767.31;6278949;20;3617973;-59
2022/11/22 00:07:28;;;;;;;;;53.33;37.00;;;;;1.69;100.00;98766.41;6310808;20;3625298;-58
2022/11/22 00:09:57;;;;;;;;;47.33;39.00;;;;;1.89;100.00;98761.13;6309523;20;2872268;-58
2022/11/22 00:12:27;;;;;;;;;63.33;46.67;;;;;1.73;100.00;98762.69;6311755;20;3631979;-59
2022/11/22 00:14:56;;;;;;;;;63.00;46.00;;;;;1.57;100.00;98765.09;6310784;20;2864991;-58
2022/11/22 00:17:25;;;;;;;;;64.00;42.00;;;;;1.60;100.00;98769.41;6277076;20;3611722;-57
2022/11/22 00:19:55;;;;;;;;;54.67;41.33;;;;;1.62;100.00;98759.63;6311917;20;2878572;-58
2022/11/22 00:22:24;;;;;;;;;64.50;47.00;;;;;1.69;100.00;98775.19;6311173;20;2864835;-58
2022/11/22 00:24:53;;;;;;;;;56.50;43.00;;;;;1.71;100.00;98776.00;6281046;20;2864975;-58
2022/11/22 00:27:21;;;;;;;;;57.00;43.00;;;;;1.81;100.00;98779.13;6277579;20;2858695;-58
2022/11/22 00:29:50;;;;;;;;;59.50;42.50;;;;;1.77;100.00;98782.81;6280345;20;2870192;-58
2022/11/22 00:32:20;;;;;;;;;56.67;41.00;;;;;1.74;100.00;98777.66;6279314;20;3628840;-58
2022/11/22 00:34:47;;;;;;;;;53.00;37.00;;;;;1.97;100.00;98785.53;6311654;20;2500493;-58
2022/11/22 00:37:17;;;;;;;;;61.67;41.00;;;;;1.82;100.00;98780.84;6281021;20;2870136;-59
2022/11/22 00:39:46;;;;;;;;;56.00;44.00;;;;;1.81;100.00;98784.41;6312729;20;2863855;-58
2022/11/22 00:42:15;;;;;;;;;61.00;45.00;;;;;1.57;100.00;98775.66;6310548;20;2856589;-58
2022/11/22 00:44:44;;;;;;;;;60.00;43.50;;;;;1.66;100.00;98785.91;6278461;20;2865960;-58
2022/11/22 00:47:11;;;;;;;;;52.00;42.00;;;;;1.94;100.00;98788.28;6272331;20;2493114;-59
2022/11/22 00:49:40;;;;;;;;;32.00;29.00;;;;;1.82;100.00;98780.84;6279760;20;2852458;-58
2022/11/22 00:52:09;;;;;;;;;53.50;43.00;;;;;1.99;100.00;98777.50;6278627;20;2845076;-59
2022/11/22 00:54:39;;;;;;;;;66.00;45.67;;;;;1.97;100.00;98774.94;6277589;20;2886342;-58
2022/11/22 00:57:08;;;;;;;;;65.33;42.67;;;;;1.83;100.00;98771.97;6308026;20;3625381;-59
2022/11/22 00:59:37;;;;;;;;;34.00;33.00;;;;;2.01;100.00;98777.44;6312049;20;2853870;-59
2022/11/22 01:02:06;;;;;;;;;56.67;39.67;;;;;1.86;100.00;98777.16;6279111;20;3616073;-58
2022/11/22 01:04:35;;;;;;;;;52.33;40.67;;;;;1.76;100.00;98773.16;6309190;20;2863867;-59
2022/11/22 01:07:05;;;;;;;;;54.67;39.00;;;;;1.45;100.00;98771.75;6309628;20;3627521;-57
2022/11/22 01:09:35;;;;;;;;;58.33;40.67;;;;;1.57;100.00;98774.81;6308741;20;3619498;-59
2022/11/22 01:12:05;;;;;;;;;45.33;40.00;;;;;1.69;100.00;98771.69;6310497;20;2844015;-58
2022/11/22 01:14:34;;;;;;;;;53.33;39.33;;;;;1.37;100.00;98768.53;6311902;20;3631659;-58
2022/11/22 01:17:04;;;;;;;;;56.67;40.33;;;;;1.44;100.00;98762.06;6308269;20;2866082;-58
2022/11/22 01:19:33;;;;;;;;;61.00;43.00;;;;;1.51;100.00;98771.50;6307889;20;2866946;-58
2022/11/22 01:22:01;;;;;;;;;52.50;43.00;;;;;1.54;100.00;98767.88;6280103;20;2850308;-59
2022/11/22 01:24:31;;;;;;;;;55.33;41.00;;;;;1.62;100.00;98765.78;6274009;20;2863988;-59
2022/11/22 01:26:59;;;;;;;;;54.50;41.50;;;;;1.60;100.00;98764.09;6310448;20;2871105;-58
2022/11/22 01:29:28;;;;;;;;;57.50;43.00;;;;;1.53;100.00;98753.78;6280808;20;2852380;-58
2022/11/22 01:31:57;;;;;;;;;55.00;43.00;;;;;1.76;100.00;98765.22;6284302;20;2846291;-58
2022/11/22 01:34:27;;;;;;;;;44.67;38.67;;;;;1.78;100.00;98768.66;6284178;20;2869066;-58
2022/11/22 01:36:56;;;;;;;;;57.00;46.00;;;;;1.99;100.00;98772.22;6315767;20;2865898;-59
2022/11/22 01:39:25;;;;;;;;;52.67;42.33;;;;;2.00;100.00;98762.47;6284046;20;2863780;-59
2022/11/22 01:41:54;;;;;;;;;60.33;44.00;;;;;1.94;100.00;98768.88;6316479;20;2869031;-59
2022/11/22 01:44:31;;;;;;;;;60.67;40.00;;;;;1.84;100.00;98767.53;6313728;20;2869221;-59
2022/11/22 01:47:20;;;;;;;;;63.50;45.50;;;;;1.63;100.00;98763.97;6313764;20;2866940;-58
2022/11/22 01:50:04;;;;;;;;;64.67;40.67;;;;;1.78;100.00;98763.38;6282795;20;2881289;-58
2022/11/22 01:52:34;;;;;;;;;62.67;45.67;;;;;1.90;100.00;98762.00;6312356;20;2862786;-58
2022/11/22 01:55:10;;;;;;;;;55.67;42.67;;;;;1.73;100.00;98754.75;6312995;20;2872715;-58
2022/11/22 01:57:42;;;;;;;;;55.00;45.50;;;;;1.67;100.00;98762.94;6312067;20;2853490;-58
2022/11/22 02:00:15;;;;;;;;;66.50;43.00;;;;;1.75;100.00;98761.69;6276333;20;2489931;-58
2022/11/22 02:02:53;;;;;;;;;64.00;43.50;;;;;1.77;100.00;98761.66;6275794;20;2892011;-58
2022/11/22 02:05:29;;;;;;;;;66.00;46.00;;;;;1.72;100.00;98766.28;6276917;20;3632768;-57
2022/11/22 02:08:17;;;;;;;;;79.33;56.67;;;;;1.81;100.00;98763.22;6313262;20;3634781;-58
2022/11/22 02:10:52;;;;;;;;;68.67;45.67;;;;;1.77;100.00;98764.31;6311245;20;3632573;-58
2022/11/22 02:13:23;;;;;;;;;57.33;42.00;;;;;1.61;100.00;98765.84;6310248;20;2879496;-58
2022/11/22 02:15:53;;;;;;;;;61.00;41.00;;;;;1.88;100.00;98761.22;6310405;20;3621106;-58
2022/11/22 02:18:22;;;;;;;;;54.50;43.50;;;;;1.89;100.00;98753.19;6312640;20;2857594;-57
2022/11/22 02:20:50;;;;;;;;;44.00;42.00;;;;;1.80;100.00;98756.22;6278864;20;2495070;-57
2022/11/22 02:23:33;;;;;;;;;54.33;40.00;;;;;1.77;100.00;98761.66;6281527;20;2872264;-59
2022/11/22 02:26:03;;;;;;;;;99.00;71.00;;;;;1.70;100.00;98755.72;6310492;20;3665900;-57
2022/11/22 02:28:37;;;;;;;;;59.00;46.00;;;;;1.77;100.00;98755.50;6280198;20;2495096;-58
2022/11/22 02:31:07;;;;;;;;;58.00;40.67;;;;;1.82;100.00;98748.22;6279249;20;3648420;-57
2022/11/22 02:33:35;;;;;;;;;64.00;47.00;;;;;1.92;100.00;98755.72;6313085;20;2769013;-57
2022/11/22 02:36:04;;;;;;;;;64.00;41.50;;;;;1.49;100.00;98754.81;6278324;20;2878392;-57
2022/11/22 02:38:35;;;;;;;;;58.00;43.00;;;;;1.66;100.00;98761.22;6280316;20;2848189;-58
2022/11/22 02:41:09;;;;;;;;;56.67;40.67;;;;;1.66;100.00;98754.16;6279502;20;3623305;-58
2022/11/22 02:43:43;;;;;;;;;54.00;39.00;;;;;1.58;100.00;98752.72;6314822;20;2855624;-57
2022/11/22 02:46:19;;;;;;;;;73.33;51.00;;;;;1.68;100.00;98751.44;6279180;20;3632631;-58
2022/11/22 02:48:48;;;;;;;;;60.00;43.00;;;;;1.49;100.00;98761.88;6314747;20;2864893;-57
2022/11/22 02:51:18;;;;;;;;;53.50;40.00;;;;;1.62;100.00;98751.69;6281583;20;2864964;-57
2022/11/22 02:53:51;;;;;;;;;58.33;43.67;;;;;1.54;100.00;98749.34;6282107;20;2867003;-58
2022/11/22 02:56:20;;;;;;;;;64.00;45.33;;;;;1.52;100.00;98741.47;6313313;20;2871229;-57
2022/11/22 02:58:50;;;;;;;;;85.00;60.33;;;;;1.64;100.00;98747.19;6313974;20;3650276;-58
2022/11/22 03:01:19;;;;;;;;;73.33;49.33;;;;;1.70;100.00;98750.44;6312008;20;3645144;-58
2022/11/22 03:03:49;;;;;;;;;91.50;66.00;;;;;1.71;100.00;98748.66;6310501;20;4422155;-57
2022/11/22 03:06:17;;;;;;;;;354.50;216.00;;;;;1.47;100.00;98740.78;6307513;20;1958671;-58
2022/11/22 03:08:49;;;;;;;;;95.00;66.33;;;;;1.53;100.00;98743.19;6282108;20;3647125;-58
2022/11/22 03:11:24;;;;;;;;;59.00;46.00;;;;;1.59;100.00;98738.59;6308357;20;2853379;-57
2022/11/22 03:13:53;;;;;;;;;94.67;65.00;;;;;1.68;100.00;98735.56;6275381;20;3663868;-58
2022/11/22 03:16:23;;;;;;;;;94.67;64.67;;;;;1.90;100.00;98736.41;6305149;20;3650398;-58
2022/11/22 03:18:52;;;;;;;;;60.67;44.33;;;;;1.70;100.00;98723.13;6279693;20;2861808;-58
2022/11/22 03:21:22;;;;;;;;;141.33;104.00;;;;;1.70;100.00;98729.28;6307856;20;3712766;-57
2022/11/22 03:23:50;;;;;;;;;120.50;92.00;;;;;1.59;100.00;98725.34;6271518;20;1954484;-59
2022/11/22 03:26:19;;;;;;;;;98.33;76.00;;;;;1.61;100.00;98734.09;6275650;20;3666959;-56
2022/11/22 03:28:48;;;;;;;;;56.00;45.00;;;;;1.68;100.00;98722.31;6313737;20;2849390;-57
2022/11/22 03:31:16;;;;;;;;;141.00;121.50;;;;;1.53;100.00;98721.19;6273922;20;1956668;-57
2022/11/22 03:33:46;;;;;;;;;92.33;66.00;;;;;1.77;100.00;98719.31;6281938;20;3655501;-57
2022/11/22 03:36:16;;;;;;;;;262.50;184.50;;;;;1.75;100.00;98718.50;6280914;20;3713856;-58
2022/11/22 03:38:46;;;;;;;;;86.00;59.00;;;;;1.76;100.00;98714.94;6314296;20;2901509;-57
2022/11/22 03:41:16;;;;;;;;;202.75;148.50;;;;;1.56;100.00;98720.19;6314130;20;4486711;-57
2022/11/22 03:43:45;;;;;;;;;235.25;163.75;;;;;1.60;100.00;98712.06;6279711;20;4499164;-57
2022/11/22 03:46:20;;;;;;;;;238.50;170.50;;;;;1.62;100.00;98712.00;6276092;20;3704422;-58
2022/11/22 03:48:48;;;;;;;;;93.50;60.00;;;;;1.72;100.00;98710.72;6270792;20;1935718;-58
2022/11/22 03:51:19;;;;;;;;;152.50;121.75;;;;;1.56;100.00;98723.69;6279950;20;3720543;-58
2022/11/22 03:53:48;;;;;;;;;88.67;61.67;;;;;1.50;100.00;98721.28;6277983;20;3660737;-58
2022/11/22 03:56:18;;;;;;;;;142.25;103.25;;;;;1.48;100.00;98718.72;6312517;20;3729675;-57
2022/11/22 03:58:48;;;;;;;;;70.00;54.00;;;;;1.56;100.00;98717.56;6310811;20;2875309;-57
2022/11/22 04:01:17;;;;;;;;;41.50;34.00;;;;;1.44;100.00;98724.19;6308834;20;2864888;-58
2022/11/22 04:03:46;;;;;;;;;59.33;40.00;;;;;1.43;100.00;98723.31;6281251;20;2874258;-57
2022/11/22 04:06:16;;;;;;;;;45.00;32.33;;;;;1.33;100.00;98729.03;6306932;20;2876416;-58
2022/11/22 04:08:44;;;;;;;;;50.50;42.00;;;;;1.22;100.00;98726.81;6311327;20;2851392;-57
2022/11/22 04:11:14;;;;;;;;;50.00;39.67;;;;;1.32;100.00;98733.47;6278691;20;2872372;-58
2022/11/22 04:16:30;;;;;;;;;63.00;48.00;;;;;1.54;100.00;98723.75;6279959;20;2881561;-57
2022/11/22 04:18:58;;;;;;;;;59.00;45.50;;;;;1.41;100.00;98726.97;6281647;20;2862781;-57
2022/11/22 04:21:34;;;;;;;;;46.33;38.00;;;;;1.50;100.00;98727.47;6281053;20;2871338;-58
2022/11/22 04:26:56;;;;;;;;;45.50;41.00;;;;;1.34;100.00;98720.19;6308022;20;2499264;-57
2022/11/22 04:29:25;;;;;;;;;50.50;41.00;;;;;1.41;100.00;98714.59;6278505;20;2848162;-58
2022/11/22 04:34:42;;;;;;;;;56.00;39.33;;;;;1.34;100.00;98715.75;6280050;20;3637783;-58
2022/11/22 04:37:11;;;;;;;;;62.50;52.00;;;;;1.31;100.00;98718.50;6308821;20;2852825;-57
2022/11/22 04:39:39;;;;;;;;;65.50;51.00;;;;;1.26;100.00;98717.84;6280924;20;2877391;-59
2022/11/22 04:44:56;;;;;;;;;43.00;35.00;;;;;1.30;100.00;98714.16;6276954;20;2863822;-58
2022/11/22 04:53:05;;;;;;;;;49.67;41.67;;;;;1.38;100.00;98716.50;6275259;20;2856065;-59
2022/11/22 04:55:35;;;;;;;;;47.00;38.00;;;;;1.39;100.00;98719.06;6309751;20;2855466;-58
2022/11/22 04:58:04;;;;;;;;;46.33;36.00;;;;;1.45;100.00;98718.84;6277658;20;3632672;-57
2022/11/22 05:00:33;;;;;;;;;48.50;38.50;;;;;1.54;100.00;98721.09;6308680;20;2865999;-57
2022/11/22 05:03:04;;;;;;;;;41.50;37.00;;;;;1.40;100.00;98720.81;6279660;20;2855534;-56
2022/11/22 05:05:41;;;;;;;;;53.00;38.50;;;;;1.56;100.00;98728.13;6282904;20;2861783;-58
2022/11/22 05:08:11;;;;;;;;;56.50;40.00;;;;;1.48;100.00;98721.38;6284197;20;2858752;-58
2022/11/22 05:10:58;;;;;;;;;37.00;30.00;;;;;1.45;100.00;98702.97;6283522;20;2850398;-57
2022/11/22 05:13:34;;;;;;;;;53.00;43.50;;;;;1.33;100.00;98721.13;6283115;20;2855597;-58
2022/11/22 05:16:06;;;;;;;;;50.00;37.67;;;;;1.41;100.00;98717.22;6280089;20;3614983;-58
2022/11/22 05:18:35;;;;;;;;;48.50;39.00;;;;;1.39;100.00;98723.50;6280072;20;2500231;-58
2022/11/22 05:21:07;;;;;;;;;48.00;34.00;;;;;1.25;100.00;98708.19;6282946;20;2864867;-58
2022/11/22 05:26:35;;;;;;;;;39.00;32.00;;;;;1.35;100.00;98712.19;6282158;20;2843047;-57
2022/11/22 05:29:09;;;;;;;;;52.00;40.00;;;;;1.24;100.00;98714.41;6281623;20;2859677;-57
2022/11/22 05:31:40;;;;;;;;;49.33;38.67;;;;;1.40;100.00;98733.19;6280449;20;3622114;-58
2022/11/22 05:34:08;;;;;;;;;46.00;40.00;;;;;1.48;100.00;98733.72;6315399;20;2854442;-57
2022/11/22 05:36:37;;;;;;;;;48.00;38.00;;;;;1.43;100.00;98741.00;6282425;20;2873274;-57
2022/11/22 05:39:06;;;;;;;;;47.00;38.00;;;;;1.52;100.00;98745.91;6283730;20;2875307;-58
2022/11/22 05:41:34;;;;;;;;;49.50;40.00;;;;;1.51;100.00;98745.03;6280781;20;2500264;-57
2022/11/22 05:44:03;;;;;;;;;45.33;38.33;;;;;1.75;100.00;98747.63;6285278;20;3624388;-58
2022/11/22 05:46:32;;;;;;;;;58.50;42.50;;;;;1.68;100.00;98740.84;6308459;20;2856586;-58
2022/11/22 05:49:01;;;;;;;;;45.00;37.33;;;;;1.61;100.00;98755.25;6284120;20;3622178;-59
2022/11/22 05:51:30;;;;;;;;;39.00;32.00;;;;;1.51;100.00;98760.06;6313938;20;2857112;-58
2022/11/22 05:54:03;;;;;;;;;48.00;37.67;;;;;1.63;100.00;98756.03;6284463;20;2872222;-59
2022/11/22 05:56:32;;;;;;;;;45.00;37.00;;;;;1.52;100.00;98757.31;6316342;20;2871181;-58
2022/11/22 05:59:00;;;;;;;;;55.50;41.50;;;;;1.63;100.00;98761.34;6280908;20;2864001;-57
2022/11/22 06:01:30;;;;;;;;;54.00;36.33;;;;;1.53;100.00;98764.38;6279567;20;3621246;-59
2022/11/22 06:03:59;;;;;;;;;64.50;51.00;;;;;1.64;100.00;98760.44;6314245;20;2872150;-59
2022/11/22 06:06:27;;;;;;;;;66.00;49.00;;;;;1.74;100.00;98760.00;6282538;20;2870066;-57
2022/11/22 06:08:59;;;;;;;;;59.00;45.00;;;;;1.67;100.00;98749.72;6284519;20;2867022;-58
2022/11/22 06:11:28;;;;;;;;;62.50;47.50;;;;;1.65;100.00;98741.84;6314791;20;2869193;-58
2022/11/22 06:14:03;;;;;;;;;57.00;44.00;;;;;1.71;100.00;98743.34;6277946;20;2495099;-58
2022/11/22 06:16:32;;;;;;;;;58.00;42.00;;;;;1.61;100.00;98744.69;6277679;20;2869117;-58
2022/11/22 06:19:01;;;;;;;;;45.00;40.00;;;;;1.60;100.00;98741.16;6283684;20;2846156;-58
2022/11/22 06:21:29;;;;;;;;;57.00;43.00;;;;;1.50;100.00;98748.63;6285060;20;2871099;-58
2022/11/22 06:23:59;;;;;;;;;58.33;42.67;;;;;1.49;100.00;98751.31;6282879;20;2871198;-59
2022/11/22 06:26:28;;;;;;;;;47.67;39.33;;;;;1.48;100.00;98757.53;6313058;20;2866045;-58
2022/11/22 06:29:04;;;;;;;;;56.00;42.00;;;;;1.64;100.00;98766.56;6314430;20;3625250;-58
2022/11/22 06:31:32;;;;;;;;;58.00;42.50;;;;;1.44;100.00;98758.56;6307705;20;2496160;-59
2022/11/22 06:34:02;;;;;;;;;61.33;42.00;;;;;1.58;100.00;98765.94;6283926;20;2886800;-58
2022/11/22 06:36:33;;;;;;;;;59.00;41.50;;;;;1.60;100.00;98772.03;6315075;20;2861778;-57
2022/11/22 06:39:03;;;;;;;;;58.50;44.00;;;;;1.67;100.00;98771.75;6284189;20;2860738;-58
2022/11/22 06:41:36;;;;;;;;;61.00;39.67;;;;;1.73;100.00;98776.78;6279157;20;2881678;-57
2022/11/22 06:44:08;;;;;;;;;70.67;49.33;;;;;1.87;100.00;98773.59;6314795;20;3636702;-58
2022/11/22 06:46:38;;;;;;;;;59.33;44.00;;;;;1.44;100.00;98764.72;6313337;20;2871208;-58
2022/11/22 06:49:06;;;;;;;;;50.00;43.00;;;;;1.80;100.00;98774.75;6314316;20;2836763;-56
2022/11/22 06:51:35;;;;;;;;;61.00;47.50;;;;;1.76;100.00;98770.50;6278526;20;2854509;-59
2022/11/22 06:54:04;;;;;;;;;34.00;29.00;;;;;1.86;100.00;98769.19;6279926;20;2860742;-58
2022/11/22 06:56:39;;;;;;;;;48.67;36.67;;;;;1.82;100.00;98770.28;6282267;20;2883747;-58
2022/11/22 06:59:09;;;;;;;;;52.67;41.00;;;;;1.78;100.00;98758.06;6315486;20;2865269;-58
2022/11/22 07:01:38;;;;;;;;;55.00;41.50;;;;;1.83;100.00;98748.16;6311626;20;2865986;-58
2022/11/22 07:04:08;;;;;;;;;47.33;38.00;;;;;1.72;100.00;98750.41;6281008;20;2862863;-58
2022/11/22 07:06:38;;;;;;;;;62.50;48.00;;;;;1.92;100.00;98745.16;6310077;20;2868478;-58
2022/11/22 07:09:10;;;;;;;;;56.50;42.00;;;;;2.03;100.00;98738.50;6280911;20;2858607;-58
2022/11/22 07:11:40;;;;;;;;;61.50;41.00;;;;;2.19;100.00;98747.56;6280530;20;2858587;-58
2022/11/22 07:14:09;;;;;;;;;58.50;41.50;;;;;2.11;100.00;98750.53;6281168;20;2863786;-59
2022/11/22 07:16:39;;;;;;;;;57.00;44.50;;;;;2.23;100.00;98756.22;6280885;20;2869130;-59
2022/11/22 07:19:07;;;;;;;;;50.00;42.00;;;;;2.12;100.00;98754.03;6281892;20;2489879;-58
2022/11/22 07:21:36;;;;;;;;;61.50;42.50;;;;;2.15;100.00;98761.84;6282573;20;2853466;-58
2022/11/22 07:24:07;;;;;;;;;57.67;44.67;;;;;2.19;100.00;98755.50;6282028;20;2866660;-59
2022/11/22 07:26:36;;;;;;;;;64.00;48.00;;;;;2.40;100.00;98754.56;6311048;20;2862780;-59
2022/11/22 07:29:05;;;;;;;;;53.50;41.50;;;;;2.28;100.00;98754.22;6278897;20;2852364;-59
2022/11/22 07:31:34;;;;;;;;;63.67;48.67;;;;;2.43;100.00;98761.53;6283122;20;2876369;-59
2022/11/22 07:34:04;;;;;;;;;61.00;49.67;;;;;2.25;100.00;98757.88;6314144;20;2874256;-59
2022/11/22 07:36:32;;;;;;;;;45.50;36.00;;;;;2.30;100.00;98761.19;6313457;20;2856588;-58
2022/11/22 07:39:02;;;;;;;;;54.50;41.50;;;;;2.34;100.00;98762.78;6280953;20;2848230;-58
2022/11/22 07:41:31;;;;;;;;;53.50;42.00;;;;;2.22;100.00;98762.44;6276089;20;2871109;-59
2022/11/22 07:43:59;;;;;;;;;58.50;45.00;;;;;2.44;100.00;98765.88;6280452;20;2496094;-59
2022/11/22 07:46:30;;;;;;;;;58.67;46.67;;;;;2.49;100.00;98771.84;6281351;20;2872277;-58
2022/11/22 07:49:01;;;;;;;;;60.67;48.67;;;;;2.42;100.00;98775.69;6309820;20;2861835;-59
2022/11/22 07:51:30;;;;;;;;;53.00;46.50;;;;;2.44;100.00;98772.97;6313673;20;2858703;-58
2022/11/22 07:53:59;;;;;;;;;62.00;49.00;;;;;2.42;100.00;98771.28;6278626;20;2866969;-58
2022/11/22 07:56:29;;;;;;;;;74.00;51.67;;;;;2.64;100.00;98775.63;6309688;20;3653466;-58
2022/11/22 07:58:59;;;;;;;;;78.00;57.67;;;;;2.68;100.00;98761.28;6310212;20;3634702;-58
2022/11/22 08:01:28;;;;;;;;;81.67;58.67;;;;;2.79;100.00;98763.47;6308976;20;3647162;-59
2022/11/22 08:03:58;;;;;;;;;62.00;42.67;;;;;2.92;100.00;98758.47;6311908;20;3648193;-58
2022/11/22 08:06:25;;;;;;;;;63.00;48.50;;;;;2.70;100.00;98753.28;6304395;20;2500536;-58
2022/11/22 08:08:54;;;;;;;;;50.50;41.00;;;;;3.01;100.00;98755.41;6276978;20;2847193;-59
2022/11/22 08:11:28;;;;;;;;;47.00;43.00;;;;;2.86;100.00;98749.00;6275570;20;2495045;-59
2022/11/22 08:13:58;;;;;;;;;65.67;45.67;;;;;3.01;100.00;98744.81;6275103;20;3635687;-59
2022/11/22 08:16:27;;;;;;;;;62.50;43.00;;;;;2.89;100.00;98745.38;6311432;20;2866936;-58
2022/11/22 08:18:56;;;;;;;;;54.00;41.50;;;;;2.95;100.00;98738.00;6281665;20;2858619;-58
2022/11/22 08:21:24;;;;;;;;;51.50;41.00;;;;;2.90;100.00;98739.13;6277972;20;2500256;-58
2022/11/22 08:23:58;;;;;;;;;69.33;47.67;;;;;3.16;100.00;98735.25;6280068;20;3641937;-59
2022/11/22 08:26:26;;;;;;;;;58.50;43.00;;;;;3.01;100.00;98740.38;6308926;20;2493126;-58
2022/11/22 08:28:55;;;;;;;;;64.67;43.67;;;;;2.96;100.00;98738.84;6281861;20;2887794;-59
2022/11/22 08:31:26;;;;;;;;;227.33;184.67;;;;;3.17;100.00;98737.00;6313167;20;3686833;-58
2022/11/22 08:33:55;;;;;;;;;61.00;46.50;;;;;2.89;100.00;98735.63;6282185;20;2866951;-58
2022/11/22 08:36:25;;;;;;;;;53.00;40.00;;;;;3.21;100.00;98734.16;6279244;20;2489887;-58
2022/11/22 08:38:54;;;;;;;;;30.00;26.00;;;;;3.07;100.00;98731.25;6278094;20;3593069;-58
2022/11/22 08:41:25;;;;;;;;;68.00;47.67;;;;;3.23;100.00;98734.91;6283389;20;3640951;-59
2022/11/22 08:43:54;;;;;;;;;66.33;42.67;;;;;3.03;100.00;98735.00;6311678;20;3624325;-59
2022/11/22 08:46:22;;;;;;;;;38.00;29.50;;;;;3.20;100.00;98737.72;6310541;20;2500337;-57
2022/11/22 08:48:53;;;;;;;;;78.00;54.33;;;;;3.35;100.00;98746.75;6281155;20;3654894;-59
2022/11/22 08:51:22;;;;;;;;;65.00;44.00;;;;;3.65;100.00;98746.19;6315694;20;2876395;-58
2022/11/22 08:53:51;;;;;;;;;65.67;49.00;;;;;3.50;100.00;98739.84;6314460;20;3647139;-58
2022/11/22 08:56:20;;;;;;;;;67.00;48.67;;;;;3.80;100.00;98732.19;6310469;20;2872252;-59
2022/11/22 08:58:49;;;;;;;;;48.67;30.67;;;;;3.73;100.00;98734.28;6314704;20;2873233;-58
2022/11/22 09:01:22;;;;;;;;;73.00;47.00;;;;;3.86;100.00;98736.34;6309937;20;3649237;-59
2022/11/22 09:03:52;;;;;;;;;82.33;56.67;;;;;3.90;100.00;98737.91;6314988;20;3650296;-59
2022/11/22 09:06:21;;;;;;;;;75.67;53.33;;;;;4.04;100.00;98738.06;6281631;20;3650254;-58
2022/11/22 09:09:11;;;;;;;;;70.50;52.00;;;;;4.21;100.00;98736.34;6279306;20;3516343;-58
2022/11/22 09:12:00;;;;;;;;;80.33;58.00;;;;;4.00;100.00;98731.19;6313209;20;3651294;-58
2022/11/22 09:14:30;;;;;;;;;85.00;61.67;;;;;4.13;100.00;98726.09;6311092;20;3663795;-58
2022/11/22 09:16:59;;;;;;;;;60.67;44.00;;;;;4.26;100.00;98723.69;6280052;20;3626795;-58
2022/11/22 09:19:29;;;;;;;;;66.33;47.67;;;;;4.51;100.00;98718.81;6313039;20;3659613;-58
2022/11/22 09:21:58;;;;;;;;;60.33;43.67;;;;;4.41;100.00;98712.28;6312631;20;2885768;-58
2022/11/22 09:24:28;;;;;;;;;67.00;50.00;;;;;4.21;100.00;98707.97;6313237;20;2867015;-58
2022/11/22 09:26:57;;;;;;;;;55.67;43.00;;;;;4.53;100.00;98711.63;6311604;20;2885697;-59
2022/11/22 09:29:27;;;;;;;;;66.00;50.33;;;;;4.51;100.00;98710.84;6310586;20;3635672;-58
2022/11/22 09:31:57;;;;;;;;;71.00;55.00;;;;;4.60;100.00;98704.19;6311699;20;3637769;-59
2022/11/22 09:34:26;;;;;;;;;72.67;53.00;;;;;4.82;100.00;98695.94;6313471;20;3648566;-58
2022/11/22 09:36:56;;;;;;;;;62.67;48.67;;;;;4.77;100.00;98703.31;6277175;20;2880703;-59
2022/11/22 09:39:25;;;;;;;;;66.33;49.33;;;;;4.68;100.00;98693.16;6312817;20;3629443;-57
2022/11/22 09:42:42;;;;;;;;;57.33;47.00;;;;;4.94;100.00;98686.41;6311145;20;2871312;-58
2022/11/22 09:45:57;;;;;;;;;59.67;49.33;;;;;5.02;100.00;98698.34;6306942;20;2869110;-58
2022/11/22 09:49:08;;;;;;;;;65.33;49.33;;;;;5.27;100.00;98678.38;6310893;20;3616923;-59
2022/11/22 09:52:37;;;;;;;;;58.67;47.33;;;;;4.88;100.00;98679.63;6312997;20;2866960;-59
2022/11/22 09:55:33;;;;;;;;;58.67;45.00;;;;;5.23;100.00;98676.81;6311681;20;3616963;-59
2022/11/22 09:58:36;;;;;;;;;82.67;68.33;;;;;5.80;100.00;98665.59;6312275;20;3654561;-58
2022/11/22 10:01:19;;;;;;;;;48.67;36.33;;;;;5.54;100.00;98667.97;6285314;20;3620086;-59
2022/11/22 10:04:09;;;;;;;;;62.00;48.33;;;;;5.66;100.00;98659.28;6318489;20;3611714;-59
2022/11/22 10:06:45;;;;;;;;;76.00;59.00;;;;;5.89;100.00;98659.72;6315718;20;3617924;-58
2022/11/22 10:09:53;;;;;;;;;76.67;56.00;;;;;5.63;100.00;98661.25;6314231;20;3657573;-58
2022/11/22 10:12:34;;;;;;;;;61.00;48.00;;;;;5.71;100.00;98658.97;6281283;20;2873338;-59
2022/11/22 10:15:28;;;;;;;;;61.33;48.67;;;;;5.91;100.00;98657.81;6314459;20;2877485;-59
2022/11/22 10:18:24;;;;;;;;;58.00;46.00;;;;;5.60;100.00;98643.63;6316577;20;2864994;-59
2022/11/22 10:20:55;;;;;;;;;55.33;43.33;;;;;5.81;100.00;98644.19;6315222;20;3609744;-58
2022/11/22 10:23:25;;;;;;;;;57.00;43.50;;;;;5.83;100.00;98638.78;6314718;20;2869016;-59
2022/11/22 10:26:21;;;;;;;;;89.67;63.00;;;;;5.79;100.00;98635.41;6283436;20;3652437;-58
2022/11/22 10:29:12;;;;;;;;;66.67;50.67;;;;;5.97;100.00;98622.84;6279737;20;3654996;-59
2022/11/22 10:32:02;;;;;;;;;62.00;51.00;;;;;5.52;100.00;98616.59;6313110;20;3628385;-59
2022/11/22 10:35:12;;;;;;;;;61.33;47.00;;;;;5.86;100.00;98610.13;6312491;20;3645066;-59
2022/11/22 10:38:32;;;;;;;;;66.33;49.00;;;;;5.69;100.00;98618.28;6315656;20;3637877;-60
2022/11/22 10:41:49;;;;;;;;;58.67;48.00;;;;;5.87;100.00;98622.53;6317377;20;3614863;-58
2022/11/22 10:45:14;;;;;;;;;64.67;50.00;;;;;5.88;100.00;98618.06;6313841;20;3630527;-59
2022/11/22 10:47:57;;;;;;;;;61.33;48.67;;;;;5.90;100.00;98611.69;6310272;20;3618103;-60
2022/11/22 10:51:00;;;;;;;;;90.33;75.67;;;;;6.07;100.00;98623.16;6317970;20;3653417;-59
2022/11/22 10:54:10;;;;;;;;;66.00;49.33;;;;;5.81;100.00;98612.22;6312058;20;3637834;-59
2022/11/22 10:57:28;;;;;;;;;62.00;49.00;;;;;5.77;100.00;98604.53;6313190;20;3626286;-60
2022/11/22 11:00:24;;;;;;;;;71.33;57.67;;;;;5.98;100.00;98607.72;6311878;20;3599225;-59
2022/11/22 11:03:31;;;;;;;;;119.25;92.00;;;;;6.19;100.00;98608.22;6312021;20;4469087;-59
2022/11/22 11:06:20;;;;;;;;;65.33;48.33;;;;;6.13;100.00;98612.13;6309203;20;3636756;-59
2022/11/22 11:09:14;;;;;;;;;62.00;45.00;;;;;5.82;100.00;98602.41;6313330;20;3629451;-59
2022/11/22 11:12:15;;;;;;;;;62.33;45.67;;;;;5.88;100.00;98599.41;6313267;20;3629459;-59
2022/11/22 11:15:04;;;;;;;;;61.00;49.33;;;;;6.15;100.00;98584.44;6311925;20;3614856;-59
2022/11/22 11:17:37;;;;;;;;;39.00;36.50;;;;;5.96;100.00;98581.19;6306021;20;2500316;-58
2022/11/22 11:20:28;;;;;;;;;58.00;44.00;;;;;5.92;100.00;98583.16;6284738;20;2870111;-59
2022/11/22 11:22:57;;;;;;;;;74.33;55.00;;;;;5.80;100.00;98567.06;6314431;20;3643351;-59
2022/11/22 11:25:46;;;;;;;;;48.33;31.67;;;;;5.54;100.00;98585.44;6313103;20;3630579;-59
2022/11/22 11:28:29;;;;;;;;;68.33;51.67;;;;;5.32;100.00;98582.28;6281959;20;3636775;-59
2022/11/22 11:31:12;;;;;;;;;78.00;53.00;;;;;5.13;100.00;98583.34;6312825;20;3634593;-59
2022/11/22 11:33:41;;;;;;;;;64.67;43.33;;;;;5.05;100.00;98562.53;6314329;20;3634615;-59
2022/11/22 11:36:23;;;;;;;;;74.67;54.67;;;;;4.91;100.00;98562.44;6314458;20;3624361;-59
2022/11/22 11:38:56;;;;;;;;;50.67;36.00;;;;;5.14;100.00;98558.47;6311995;20;3631506;-59
2022/11/22 11:41:33;;;;;;;;;67.00;48.00;;;;;5.42;100.00;98552.38;6315443;20;3637803;-59
2022/11/22 11:44:32;;;;;;;;;81.33;61.33;;;;;5.34;100.00;98546.66;6315624;20;3634643;-59
2022/11/22 11:47:03;;;;;;;;;60.00;44.50;;;;;5.21;100.00;98545.66;6308870;20;2502376;-59
2022/11/22 11:49:34;;;;;;;;;69.00;49.00;;;;;5.06;100.00;98545.63;6283741;20;3634631;-59
2022/11/22 11:52:21;;;;;;;;;68.00;47.67;;;;;4.78;100.00;98533.03;6312447;20;3642997;-60